sensor_id;sensor_type;location;lat;lon;timestamp;P1;durP1;ratioP1;P2;durP2;ratioP2
29330;SDS011;16331;52.528;13.342;2023-08-30T00:01:20;8.43;;;3.42;;
29330;SDS011;16331;52.528;13.342;2023-08-30T00:03:46;5.35;;;2.95;;
29330;SDS011;16331;52.528;13.342;2023-08-30T00:06:12;6.45;;;2.65;;
29330;SDS011;16331;52.528;13.342;2023-08-30T00:08:38;4.80;;;2.67;;
29330;SDS011;16331;52.528;13.342;2023-08-30T00:11:04;4.75;;;2.63;;
29330;SDS011;16331;52.528;13.342;2023-08-30T00:13:30;3.70;;;2.80;;
29330;SDS011;16331;52.528;13.342;2023-08-30T00:15:58;6.53;;;3.67;;
29330;SDS011;16331;52.528;13.342;2023-08-30T00:18:24;7.05;;;3.55;;
29330;SDS011;16331;52.528;13.342;2023-08-30T00:20:50;4.32;;;2.63;;
29330;SDS011;16331;52.528;13.342;2023-08-30T00:23:17;4.75;;;2.97;;
29330;SDS011;16331;52.528;13.342;2023-08-30T00:25:43;6.55;;;3.42;;
29330;SDS011;16331;52.528;13.342;2023-08-30T00:28:09;5.32;;;2.95;;
29330;SDS011;16331;52.528;13.342;2023-08-30T00:30:35;4.18;;;2.83;;
29330;SDS011;16331;52.528;13.342;2023-08-30T00:33:01;3.42;;;2.50;;
29330;SDS011;16331;52.528;13.342;2023-08-30T00:35:28;4.32;;;3.47;;
29330;SDS011;16331;52.528;13.342;2023-08-30T00:37:56;4.43;;;2.92;;
29330;SDS011;16331;52.528;13.342;2023-08-30T00:40:23;6.43;;;2.63;;
29330;SDS011;16331;52.528;13.342;2023-08-30T00:42:53;7.85;;;2.67;;
29330;SDS011;16331;52.528;13.342;2023-08-30T00:45:19;5.57;;;3.08;;
29330;SDS011;16331;52.528;13.342;2023-08-30T00:47:45;6.20;;;3.00;;
29330;SDS011;16331;52.528;13.342;2023-08-30T00:50:12;6.20;;;3.00;;
29330;SDS011;16331;52.528;13.342;2023-08-30T00:52:39;8.90;;;3.28;;
29330;SDS011;16331;52.528;13.342;2023-08-30T00:55:05;6.10;;;3.00;;
29330;SDS011;16331;52.528;13.342;2023-08-30T00:57:32;8.77;;;3.03;;
29330;SDS011;16331;52.528;13.342;2023-08-30T00:59:59;4.68;;;2.90;;
29330;SDS011;16331;52.528;13.342;2023-08-30T01:02:25;5.18;;;3.08;;
29330;SDS011;16331;52.528;13.342;2023-08-30T01:04:52;4.65;;;3.05;;
29330;SDS011;16331;52.528;13.342;2023-08-30T01:07:18;7.07;;;2.95;;
29330;SDS011;16331;52.528;13.342;2023-08-30T01:09:44;7.35;;;3.60;;
29330;SDS011;16331;52.528;13.342;2023-08-30T01:12:12;5.75;;;3.10;;
29330;SDS011;16331;52.528;13.342;2023-08-30T01:14:57;7.97;;;3.63;;
29330;SDS011;16331;52.528;13.342;2023-08-30T01:17:30;4.55;;;3.60;;
29330;SDS011;16331;52.528;13.342;2023-08-30T01:20:04;5.78;;;3.40;;
29330;SDS011;16331;52.528;13.342;2023-08-30T01:22:53;3.85;;;2.72;;
29330;SDS011;16331;52.528;13.342;2023-08-30T01:28:28;6.88;;;3.22;;
29330;SDS011;16331;52.528;13.342;2023-08-30T01:30:56;6.32;;;3.20;;
29330;SDS011;16331;52.528;13.342;2023-08-30T01:33:24;5.72;;;3.15;;
29330;SDS011;16331;52.528;13.342;2023-08-30T01:35:55;8.20;;;3.90;;
29330;SDS011;16331;52.528;13.342;2023-08-30T01:38:23;6.07;;;3.42;;
29330;SDS011;16331;52.528;13.342;2023-08-30T01:40:56;6.45;;;3.05;;
29330;SDS011;16331;52.528;13.342;2023-08-30T01:43:24;5.53;;;3.63;;
29330;SDS011;16331;52.528;13.342;2023-08-30T01:45:53;7.30;;;3.22;;
29330;SDS011;16331;52.528;13.342;2023-08-30T01:48:24;7.75;;;2.80;;
29330;SDS011;16331;52.528;13.342;2023-08-30T01:50:52;4.85;;;3.33;;
29330;SDS011;16331;52.528;13.342;2023-08-30T01:53:23;6.25;;;3.15;;
29330;SDS011;16331;52.528;13.342;2023-08-30T01:55:50;11.93;;;3.80;;
29330;SDS011;16331;52.528;13.342;2023-08-30T01:58:16;5.50;;;3.63;;
29330;SDS011;16331;52.528;13.342;2023-08-30T02:00:42;9.52;;;3.10;;
29330;SDS011;16331;52.528;13.342;2023-08-30T02:03:09;8.27;;;4.47;;
29330;SDS011;16331;52.528;13.342;2023-08-30T02:05:36;4.60;;;2.92;;
29330;SDS011;16331;52.528;13.342;2023-08-30T02:08:11;6.40;;;3.50;;
29330;SDS011;16331;52.528;13.342;2023-08-30T02:10:45;4.68;;;2.97;;
29330;SDS011;16331;52.528;13.342;2023-08-30T02:13:27;6.65;;;3.63;;
29330;SDS011;16331;52.528;13.342;2023-08-30T02:15:55;4.93;;;3.00;;
29330;SDS011;16331;52.528;13.342;2023-08-30T02:18:24;5.13;;;3.70;;
29330;SDS011;16331;52.528;13.342;2023-08-30T02:20:51;4.75;;;3.10;;
29330;SDS011;16331;52.528;13.342;2023-08-30T02:23:22;4.72;;;2.85;;
29330;SDS011;16331;52.528;13.342;2023-08-30T02:25:51;6.93;;;3.47;;
29330;SDS011;16331;52.528;13.342;2023-08-30T02:28:19;9.45;;;3.83;;
29330;SDS011;16331;52.528;13.342;2023-08-30T02:30:45;6.47;;;3.58;;
29330;SDS011;16331;52.528;13.342;2023-08-30T02:33:11;10.27;;;3.38;;
29330;SDS011;16331;52.528;13.342;2023-08-30T02:35:37;5.25;;;3.60;;
29330;SDS011;16331;52.528;13.342;2023-08-30T02:38:03;4.57;;;3.05;;
29330;SDS011;16331;52.528;13.342;2023-08-30T02:40:30;6.47;;;3.25;;
29330;SDS011;16331;52.528;13.342;2023-08-30T02:42:57;4.78;;;3.53;;
29330;SDS011;16331;52.528;13.342;2023-08-30T02:45:23;6.50;;;3.42;;
29330;SDS011;16331;52.528;13.342;2023-08-30T02:47:49;4.15;;;3.30;;
29330;SDS011;16331;52.528;13.342;2023-08-30T02:50:27;6.05;;;3.88;;
29330;SDS011;16331;52.528;13.342;2023-08-30T02:52:53;4.97;;;3.75;;
29330;SDS011;16331;52.528;13.342;2023-08-30T02:55:19;8.77;;;4.10;;
29330;SDS011;16331;52.528;13.342;2023-08-30T02:57:45;6.50;;;4.07;;
29330;SDS011;16331;52.528;13.342;2023-08-30T03:00:11;8.45;;;4.38;;
29330;SDS011;16331;52.528;13.342;2023-08-30T03:02:38;6.38;;;4.15;;
29330;SDS011;16331;52.528;13.342;2023-08-30T03:05:04;7.03;;;4.47;;
29330;SDS011;16331;52.528;13.342;2023-08-30T03:07:31;5.93;;;4.00;;
29330;SDS011;16331;52.528;13.342;2023-08-30T03:09:57;7.70;;;4.55;;
29330;SDS011;16331;52.528;13.342;2023-08-30T03:12:23;7.20;;;5.00;;
29330;SDS011;16331;52.528;13.342;2023-08-30T03:14:50;8.15;;;4.80;;
29330;SDS011;16331;52.528;13.342;2023-08-30T03:17:16;26.88;;;7.38;;
29330;SDS011;16331;52.528;13.342;2023-08-30T03:19:43;9.85;;;5.88;;
29330;SDS011;16331;52.528;13.342;2023-08-30T03:22:09;13.55;;;5.45;;
29330;SDS011;16331;52.528;13.342;2023-08-30T03:24:35;8.30;;;5.72;;
29330;SDS011;16331;52.528;13.342;2023-08-30T03:27:01;7.82;;;4.90;;
29330;SDS011;16331;52.528;13.342;2023-08-30T03:29:28;12.70;;;6.85;;
29330;SDS011;16331;52.528;13.342;2023-08-30T03:31:54;9.15;;;6.53;;
29330;SDS011;16331;52.528;13.342;2023-08-30T03:34:20;13.27;;;7.10;;
29330;SDS011;16331;52.528;13.342;2023-08-30T03:36:46;11.45;;;7.20;;
29330;SDS011;16331;52.528;13.342;2023-08-30T03:39:19;13.85;;;7.95;;
29330;SDS011;16331;52.528;13.342;2023-08-30T03:41:45;13.70;;;7.28;;
29330;SDS011;16331;52.528;13.342;2023-08-30T03:44:11;10.52;;;6.50;;
29330;SDS011;16331;52.528;13.342;2023-08-30T03:46:37;12.63;;;7.05;;
29330;SDS011;16331;52.528;13.342;2023-08-30T03:49:03;10.88;;;6.57;;
29330;SDS011;16331;52.528;13.342;2023-08-30T03:51:29;9.50;;;6.70;;
29330;SDS011;16331;52.528;13.342;2023-08-30T03:53:56;10.98;;;7.43;;
29330;SDS011;16331;52.528;13.342;2023-08-30T03:56:22;13.40;;;7.20;;
29330;SDS011;16331;52.528;13.342;2023-08-30T03:58:48;13.07;;;7.10;;
29330;SDS011;16331;52.528;13.342;2023-08-30T04:01:14;11.95;;;7.60;;
29330;SDS011;16331;52.528;13.342;2023-08-30T04:03:40;11.95;;;7.22;;
29330;SDS011;16331;52.528;13.342;2023-08-30T04:06:06;13.07;;;8.35;;
29330;SDS011;16331;52.528;13.342;2023-08-30T04:08:32;11.07;;;7.43;;
29330;SDS011;16331;52.528;13.342;2023-08-30T04:10:59;11.43;;;7.32;;
29330;SDS011;16331;52.528;13.342;2023-08-30T04:13:25;10.85;;;7.07;;
29330;SDS011;16331;52.528;13.342;2023-08-30T04:15:51;10.48;;;7.03;;
29330;SDS011;16331;52.528;13.342;2023-08-30T04:18:17;8.90;;;6.78;;
29330;SDS011;16331;52.528;13.342;2023-08-30T04:20:47;10.48;;;6.97;;
29330;SDS011;16331;52.528;13.342;2023-08-30T04:23:13;14.10;;;7.55;;
29330;SDS011;16331;52.528;13.342;2023-08-30T04:25:41;12.82;;;7.50;;
29330;SDS011;16331;52.528;13.342;2023-08-30T04:28:09;13.52;;;7.28;;
29330;SDS011;16331;52.528;13.342;2023-08-30T04:30:35;13.75;;;7.72;;
29330;SDS011;16331;52.528;13.342;2023-08-30T04:33:03;12.82;;;7.45;;
29330;SDS011;16331;52.528;13.342;2023-08-30T04:35:30;18.58;;;7.93;;
29330;SDS011;16331;52.528;13.342;2023-08-30T04:37:57;13.82;;;7.30;;
29330;SDS011;16331;52.528;13.342;2023-08-30T04:40:24;11.55;;;7.07;;
29330;SDS011;16331;52.528;13.342;2023-08-30T04:42:50;12.25;;;7.43;;
29330;SDS011;16331;52.528;13.342;2023-08-30T04:45:18;10.48;;;7.35;;
29330;SDS011;16331;52.528;13.342;2023-08-30T04:47:44;11.00;;;7.53;;
29330;SDS011;16331;52.528;13.342;2023-08-30T04:50:10;12.82;;;7.55;;
29330;SDS011;16331;52.528;13.342;2023-08-30T04:52:37;11.40;;;8.10;;
29330;SDS011;16331;52.528;13.342;2023-08-30T04:55:03;9.23;;;6.55;;
29330;SDS011;16331;52.528;13.342;2023-08-30T04:57:30;11.65;;;6.60;;
29330;SDS011;16331;52.528;13.342;2023-08-30T04:59:56;14.60;;;7.00;;
29330;SDS011;16331;52.528;13.342;2023-08-30T05:02:22;11.65;;;6.85;;
29330;SDS011;16331;52.528;13.342;2023-08-30T05:04:48;11.05;;;7.13;;
29330;SDS011;16331;52.528;13.342;2023-08-30T05:07:16;12.32;;;6.25;;
29330;SDS011;16331;52.528;13.342;2023-08-30T05:09:43;9.10;;;6.50;;
29330;SDS011;16331;52.528;13.342;2023-08-30T05:12:09;8.02;;;5.95;;
29330;SDS011;16331;52.528;13.342;2023-08-30T05:14:37;9.18;;;5.20;;
29330;SDS011;16331;52.528;13.342;2023-08-30T05:17:03;9.43;;;5.80;;
29330;SDS011;16331;52.528;13.342;2023-08-30T05:19:30;7.68;;;4.75;;
29330;SDS011;16331;52.528;13.342;2023-08-30T05:21:57;7.47;;;4.85;;
29330;SDS011;16331;52.528;13.342;2023-08-30T05:24:23;6.72;;;4.70;;
29330;SDS011;16331;52.528;13.342;2023-08-30T05:26:51;7.95;;;3.85;;
29330;SDS011;16331;52.528;13.342;2023-08-30T05:29:19;8.60;;;3.95;;
29330;SDS011;16331;52.528;13.342;2023-08-30T05:31:45;5.10;;;4.00;;
29330;SDS011;16331;52.528;13.342;2023-08-30T05:34:11;6.32;;;3.95;;
29330;SDS011;16331;52.528;13.342;2023-08-30T05:36:37;5.30;;;3.80;;
29330;SDS011;16331;52.528;13.342;2023-08-30T05:39:04;6.13;;;3.72;;
29330;SDS011;16331;52.528;13.342;2023-08-30T05:41:31;6.88;;;3.28;;
29330;SDS011;16331;52.528;13.342;2023-08-30T05:43:57;5.18;;;3.60;;
29330;SDS011;16331;52.528;13.342;2023-08-30T05:46:23;7.18;;;3.90;;
29330;SDS011;16331;52.528;13.342;2023-08-30T05:48:50;4.45;;;3.55;;
29330;SDS011;16331;52.528;13.342;2023-08-30T05:51:16;7.72;;;3.50;;
29330;SDS011;16331;52.528;13.342;2023-08-30T05:53:42;7.38;;;3.88;;
29330;SDS011;16331;52.528;13.342;2023-08-30T05:56:08;5.53;;;3.97;;
29330;SDS011;16331;52.528;13.342;2023-08-30T05:58:34;8.13;;;4.18;;
29330;SDS011;16331;52.528;13.342;2023-08-30T06:01:01;4.82;;;3.50;;
29330;SDS011;16331;52.528;13.342;2023-08-30T06:03:28;7.25;;;3.50;;
29330;SDS011;16331;52.528;13.342;2023-08-30T06:05:54;5.35;;;3.83;;
29330;SDS011;16331;52.528;13.342;2023-08-30T06:08:20;5.30;;;3.33;;
29330;SDS011;16331;52.528;13.342;2023-08-30T06:10:46;4.68;;;3.33;;
29330;SDS011;16331;52.528;13.342;2023-08-30T06:13:12;6.50;;;3.92;;
29330;SDS011;16331;52.528;13.342;2023-08-30T06:15:38;8.43;;;4.68;;
29330;SDS011;16331;52.528;13.342;2023-08-30T06:18:04;7.50;;;3.88;;
29330;SDS011;16331;52.528;13.342;2023-08-30T06:20:30;9.15;;;4.43;;
29330;SDS011;16331;52.528;13.342;2023-08-30T06:22:57;5.15;;;3.67;;
29330;SDS011;16331;52.528;13.342;2023-08-30T06:25:24;6.00;;;3.50;;
29330;SDS011;16331;52.528;13.342;2023-08-30T06:27:56;8.23;;;4.47;;
29330;SDS011;16331;52.528;13.342;2023-08-30T06:30:25;6.03;;;4.20;;
29330;SDS011;16331;52.528;13.342;2023-08-30T06:32:51;9.57;;;5.05;;
29330;SDS011;16331;52.528;13.342;2023-08-30T06:35:17;7.03;;;3.80;;
29330;SDS011;16331;52.528;13.342;2023-08-30T06:37:43;7.45;;;3.88;;
29330;SDS011;16331;52.528;13.342;2023-08-30T06:40:10;7.40;;;4.38;;
29330;SDS011;16331;52.528;13.342;2023-08-30T06:42:36;7.05;;;3.88;;
29330;SDS011;16331;52.528;13.342;2023-08-30T06:45:03;10.77;;;4.30;;
29330;SDS011;16331;52.528;13.342;2023-08-30T06:47:30;7.13;;;3.95;;
29330;SDS011;16331;52.528;13.342;2023-08-30T06:49:56;6.28;;;3.88;;
29330;SDS011;16331;52.528;13.342;2023-08-30T06:52:22;8.10;;;4.15;;
29330;SDS011;16331;52.528;13.342;2023-08-30T06:54:49;9.45;;;4.30;;
29330;SDS011;16331;52.528;13.342;2023-08-30T06:57:15;4.72;;;4.05;;
29330;SDS011;16331;52.528;13.342;2023-08-30T06:59:41;6.47;;;3.70;;
29330;SDS011;16331;52.528;13.342;2023-08-30T07:02:07;7.35;;;4.03;;
29330;SDS011;16331;52.528;13.342;2023-08-30T07:04:33;5.90;;;3.67;;
29330;SDS011;16331;52.528;13.342;2023-08-30T07:07:00;4.95;;;3.38;;
29330;SDS011;16331;52.528;13.342;2023-08-30T07:09:26;8.13;;;3.13;;
29330;SDS011;16331;52.528;13.342;2023-08-30T07:11:56;5.18;;;3.17;;
29330;SDS011;16331;52.528;13.342;2023-08-30T07:14:23;3.33;;;2.42;;
29330;SDS011;16331;52.528;13.342;2023-08-30T07:16:49;3.70;;;2.65;;
29330;SDS011;16331;52.528;13.342;2023-08-30T07:19:16;3.75;;;2.50;;
29330;SDS011;16331;52.528;13.342;2023-08-30T07:21:42;5.68;;;3.03;;
29330;SDS011;16331;52.528;13.342;2023-08-30T07:24:08;4.22;;;2.53;;
29330;SDS011;16331;52.528;13.342;2023-08-30T07:26:35;3.60;;;2.33;;
29330;SDS011;16331;52.528;13.342;2023-08-30T07:29:01;8.45;;;2.60;;
29330;SDS011;16331;52.528;13.342;2023-08-30T07:31:32;5.88;;;3.03;;
29330;SDS011;16331;52.528;13.342;2023-08-30T07:33:58;6.22;;;2.38;;
29330;SDS011;16331;52.528;13.342;2023-08-30T07:36:28;2.95;;;2.05;;
29330;SDS011;16331;52.528;13.342;2023-08-30T07:38:55;6.45;;;3.05;;
29330;SDS011;16331;52.528;13.342;2023-08-30T07:41:21;3.55;;;2.35;;
29330;SDS011;16331;52.528;13.342;2023-08-30T07:43:48;10.93;;;4.78;;
29330;SDS011;16331;52.528;13.342;2023-08-30T07:46:14;10.13;;;2.10;;
29330;SDS011;16331;52.528;13.342;2023-08-30T07:48:41;4.95;;;2.50;;
29330;SDS011;16331;52.528;13.342;2023-08-30T07:51:08;2.95;;;2.33;;
29330;SDS011;16331;52.528;13.342;2023-08-30T07:53:34;8.43;;;2.10;;
29330;SDS011;16331;52.528;13.342;2023-08-30T07:56:00;6.25;;;2.08;;
29330;SDS011;16331;52.528;13.342;2023-08-30T07:58:26;4.22;;;2.05;;
29330;SDS011;16331;52.528;13.342;2023-08-30T08:00:52;4.53;;;1.90;;
29330;SDS011;16331;52.528;13.342;2023-08-30T08:03:21;6.00;;;2.30;;
29330;SDS011;16331;52.528;13.342;2023-08-30T08:05:47;3.97;;;1.98;;
29330;SDS011;16331;52.528;13.342;2023-08-30T08:08:13;5.25;;;2.05;;
29330;SDS011;16331;52.528;13.342;2023-08-30T08:10:41;3.67;;;1.83;;
29330;SDS011;16331;52.528;13.342;2023-08-30T08:13:07;3.92;;;2.03;;
29330;SDS011;16331;52.528;13.342;2023-08-30T08:15:34;10.45;;;2.38;;
29330;SDS011;16331;52.528;13.342;2023-08-30T08:18:02;9.50;;;4.55;;
29330;SDS011;16331;52.528;13.342;2023-08-30T08:20:28;7.07;;;3.10;;
29330;SDS011;16331;52.528;13.342;2023-08-30T08:22:55;4.10;;;2.13;;
29330;SDS011;16331;52.528;13.342;2023-08-30T08:25:21;4.00;;;2.50;;
29330;SDS011;16331;52.528;13.342;2023-08-30T08:27:49;5.20;;;2.60;;
29330;SDS011;16331;52.528;13.342;2023-08-30T08:30:16;5.28;;;2.42;;
29330;SDS011;16331;52.528;13.342;2023-08-30T08:32:42;3.30;;;2.15;;
29330;SDS011;16331;52.528;13.342;2023-08-30T08:35:10;2.35;;;1.90;;
29330;SDS011;16331;52.528;13.342;2023-08-30T08:37:36;2.05;;;1.60;;
29330;SDS011;16331;52.528;13.342;2023-08-30T08:40:03;2.05;;;1.60;;
29330;SDS011;16331;52.528;13.342;2023-08-30T08:42:33;2.58;;;1.40;;
29330;SDS011;16331;52.528;13.342;2023-08-30T08:45:02;5.53;;;2.42;;
29330;SDS011;16331;52.528;13.342;2023-08-30T08:47:32;4.50;;;2.20;;
29330;SDS011;16331;52.528;13.342;2023-08-30T08:49:58;4.55;;;1.98;;
29330;SDS011;16331;52.528;13.342;2023-08-30T08:52:28;2.40;;;1.48;;
29330;SDS011;16331;52.528;13.342;2023-08-30T08:54:55;1.95;;;1.48;;
29330;SDS011;16331;52.528;13.342;2023-08-30T08:57:22;2.45;;;1.33;;
29330;SDS011;16331;52.528;13.342;2023-08-30T08:59:48;4.43;;;1.50;;
29330;SDS011;16331;52.528;13.342;2023-08-30T09:02:15;3.55;;;1.30;;
29330;SDS011;16331;52.528;13.342;2023-08-30T09:04:41;3.63;;;1.67;;
29330;SDS011;16331;52.528;13.342;2023-08-30T09:07:07;2.80;;;1.60;;
29330;SDS011;16331;52.528;13.342;2023-08-30T09:09:33;2.05;;;1.20;;
29330;SDS011;16331;52.528;13.342;2023-08-30T09:12:00;4.00;;;2.55;;
29330;SDS011;16331;52.528;13.342;2023-08-30T09:14:26;1.90;;;1.20;;
29330;SDS011;16331;52.528;13.342;2023-08-30T09:16:59;2.90;;;1.75;;
29330;SDS011;16331;52.528;13.342;2023-08-30T09:19:26;7.53;;;1.48;;
29330;SDS011;16331;52.528;13.342;2023-08-30T09:21:59;2.85;;;1.88;;
29330;SDS011;16331;52.528;13.342;2023-08-30T09:27:02;4.20;;;2.03;;
29330;SDS011;16331;52.528;13.342;2023-08-30T09:29:29;3.92;;;1.83;;
29330;SDS011;16331;52.528;13.342;2023-08-30T09:31:55;3.97;;;1.60;;
29330;SDS011;16331;52.528;13.342;2023-08-30T09:34:24;2.10;;;1.70;;
29330;SDS011;16331;52.528;13.342;2023-08-30T09:36:51;2.80;;;1.70;;
29330;SDS011;16331;52.528;13.342;2023-08-30T09:39:18;3.15;;;2.05;;
29330;SDS011;16331;52.528;13.342;2023-08-30T09:41:46;9.18;;;2.40;;
29330;SDS011;16331;52.528;13.342;2023-08-30T09:44:14;5.72;;;2.13;;
29330;SDS011;16331;52.528;13.342;2023-08-30T09:46:46;5.57;;;2.67;;
29330;SDS011;16331;52.528;13.342;2023-08-30T09:49:15;2.60;;;1.73;;
29330;SDS011;16331;52.528;13.342;2023-08-30T09:51:43;2.67;;;2.00;;
29330;SDS011;16331;52.528;13.342;2023-08-30T09:54:15;3.42;;;2.10;;
29330;SDS011;16331;52.528;13.342;2023-08-30T09:56:46;5.57;;;1.83;;
29330;SDS011;16331;52.528;13.342;2023-08-30T09:59:12;2.25;;;1.52;;
29330;SDS011;16331;52.528;13.342;2023-08-30T10:01:40;4.25;;;1.23;;
29330;SDS011;16331;52.528;13.342;2023-08-30T10:04:07;4.10;;;1.30;;
29330;SDS011;16331;52.528;13.342;2023-08-30T10:06:34;2.80;;;1.50;;
29330;SDS011;16331;52.528;13.342;2023-08-30T10:09:02;1.88;;;0.95;;
29330;SDS011;16331;52.528;13.342;2023-08-30T10:11:29;5.75;;;1.50;;
29330;SDS011;16331;52.528;13.342;2023-08-30T10:14:00;2.72;;;1.63;;
29330;SDS011;16331;52.528;13.342;2023-08-30T10:16:34;4.97;;;1.92;;
29330;SDS011;16331;52.528;13.342;2023-08-30T10:19:11;3.20;;;2.13;;
29330;SDS011;16331;52.528;13.342;2023-08-30T10:21:39;7.90;;;2.00;;
29330;SDS011;16331;52.528;13.342;2023-08-30T10:24:09;7.53;;;2.17;;
29330;SDS011;16331;52.528;13.342;2023-08-30T10:26:37;4.70;;;2.28;;
29330;SDS011;16331;52.528;13.342;2023-08-30T10:29:06;3.88;;;1.63;;
29330;SDS011;16331;52.528;13.342;2023-08-30T10:31:35;3.65;;;1.20;;
29330;SDS011;16331;52.528;13.342;2023-08-30T10:34:11;4.95;;;2.00;;
29330;SDS011;16331;52.528;13.342;2023-08-30T10:36:42;4.07;;;1.70;;
29330;SDS011;16331;52.528;13.342;2023-08-30T10:39:13;2.72;;;1.83;;
29330;SDS011;16331;52.528;13.342;2023-08-30T10:41:55;4.65;;;2.10;;
29330;SDS011;16331;52.528;13.342;2023-08-30T10:46:52;2.50;;;1.85;;
29330;SDS011;16331;52.528;13.342;2023-08-30T10:49:19;1.83;;;1.60;;
29330;SDS011;16331;52.528;13.342;2023-08-30T10:51:56;9.75;;;2.60;;
29330;SDS011;16331;52.528;13.342;2023-08-30T10:54:23;1.90;;;1.42;;
29330;SDS011;16331;52.528;13.342;2023-08-30T10:56:56;3.10;;;1.30;;
29330;SDS011;16331;52.528;13.342;2023-08-30T10:59:27;5.88;;;2.15;;
29330;SDS011;16331;52.528;13.342;2023-08-30T11:02:00;4.25;;;1.52;;
29330;SDS011;16331;52.528;13.342;2023-08-30T11:04:28;1.83;;;1.45;;
29330;SDS011;16331;52.528;13.342;2023-08-30T11:06:54;3.78;;;1.80;;
29330;SDS011;16331;52.528;13.342;2023-08-30T11:09:22;1.63;;;1.40;;
29330;SDS011;16331;52.528;13.342;2023-08-30T11:11:49;5.93;;;1.63;;
29330;SDS011;16331;52.528;13.342;2023-08-30T11:14:17;2.83;;;1.17;;
29330;SDS011;16331;52.528;13.342;2023-08-30T11:16:48;3.63;;;1.15;;
29330;SDS011;16331;52.528;13.342;2023-08-30T11:19:14;4.22;;;1.25;;
29330;SDS011;16331;52.528;13.342;2023-08-30T11:21:42;5.25;;;1.75;;
29330;SDS011;16331;52.528;13.342;2023-08-30T11:24:10;4.30;;;1.30;;
29330;SDS011;16331;52.528;13.342;2023-08-30T11:26:37;3.35;;;1.50;;
29330;SDS011;16331;52.528;13.342;2023-08-30T11:29:03;6.43;;;1.35;;
29330;SDS011;16331;52.528;13.342;2023-08-30T11:31:36;2.10;;;1.20;;
29330;SDS011;16331;52.528;13.342;2023-08-30T11:34:02;3.45;;;0.95;;
29330;SDS011;16331;52.528;13.342;2023-08-30T11:36:29;2.47;;;1.00;;
29330;SDS011;16331;52.528;13.342;2023-08-30T11:38:57;1.70;;;1.00;;
29330;SDS011;16331;52.528;13.342;2023-08-30T11:41:24;3.35;;;1.25;;
29330;SDS011;16331;52.528;13.342;2023-08-30T11:43:51;2.28;;;1.17;;
29330;SDS011;16331;52.528;13.342;2023-08-30T11:46:18;5.68;;;1.27;;
29330;SDS011;16331;52.528;13.342;2023-08-30T11:48:45;3.40;;;1.02;;
29330;SDS011;16331;52.528;13.342;2023-08-30T11:51:13;7.32;;;2.42;;
29330;SDS011;16331;52.528;13.342;2023-08-30T11:53:40;1.48;;;0.73;;
29330;SDS011;16331;52.528;13.342;2023-08-30T11:56:06;2.63;;;1.02;;
29330;SDS011;16331;52.528;13.342;2023-08-30T11:58:36;1.30;;;1.02;;
29330;SDS011;16331;52.528;13.342;2023-08-30T12:01:03;3.03;;;1.80;;
29330;SDS011;16331;52.528;13.342;2023-08-30T12:03:30;2.55;;;1.20;;
29330;SDS011;16331;52.528;13.342;2023-08-30T12:05:57;3.33;;;1.20;;
29330;SDS011;16331;52.528;13.342;2023-08-30T12:08:30;5.07;;;1.40;;
29330;SDS011;16331;52.528;13.342;2023-08-30T12:10:57;1.88;;;1.30;;
29330;SDS011;16331;52.528;13.342;2023-08-30T12:15:57;3.45;;;1.45;;
29330;SDS011;16331;52.528;13.342;2023-08-30T12:18:25;1.95;;;1.15;;
29330;SDS011;16331;52.528;13.342;2023-08-30T12:21:00;3.88;;;1.65;;
29330;SDS011;16331;52.528;13.342;2023-08-30T12:23:30;3.13;;;1.67;;
29330;SDS011;16331;52.528;13.342;2023-08-30T12:28:31;6.05;;;1.52;;
29330;SDS011;16331;52.528;13.342;2023-08-30T12:31:00;3.13;;;1.48;;
29330;SDS011;16331;52.528;13.342;2023-08-30T12:33:27;2.53;;;1.52;;
29330;SDS011;16331;52.528;13.342;2023-08-30T12:35:53;6.35;;;1.67;;
29330;SDS011;16331;52.528;13.342;2023-08-30T12:38:20;2.67;;;1.50;;
29330;SDS011;16331;52.528;13.342;2023-08-30T12:40:48;5.50;;;1.45;;
29330;SDS011;16331;52.528;13.342;2023-08-30T12:43:15;3.10;;;2.15;;
29330;SDS011;16331;52.528;13.342;2023-08-30T12:45:42;3.40;;;1.92;;
29330;SDS011;16331;52.528;13.342;2023-08-30T12:48:10;3.63;;;1.60;;
29330;SDS011;16331;52.528;13.342;2023-08-30T12:50:38;2.85;;;1.83;;
29330;SDS011;16331;52.528;13.342;2023-08-30T12:53:04;3.10;;;1.80;;
29330;SDS011;16331;52.528;13.342;2023-08-30T12:55:32;3.83;;;1.50;;
29330;SDS011;16331;52.528;13.342;2023-08-30T12:57:59;5.47;;;1.88;;
29330;SDS011;16331;52.528;13.342;2023-08-30T13:00:26;3.30;;;1.60;;
29330;SDS011;16331;52.528;13.342;2023-08-30T13:02:53;2.20;;;1.50;;
29330;SDS011;16331;52.528;13.342;2023-08-30T13:05:19;2.85;;;1.75;;
29330;SDS011;16331;52.528;13.342;2023-08-30T13:07:46;3.35;;;1.70;;
29330;SDS011;16331;52.528;13.342;2023-08-30T13:10:13;3.38;;;1.70;;
29330;SDS011;16331;52.528;13.342;2023-08-30T13:12:42;6.18;;;2.33;;
29330;SDS011;16331;52.528;13.342;2023-08-30T13:15:08;3.15;;;1.63;;
29330;SDS011;16331;52.528;13.342;2023-08-30T13:17:35;6.82;;;2.00;;
29330;SDS011;16331;52.528;13.342;2023-08-30T13:20:01;1.95;;;1.25;;
29330;SDS011;16331;52.528;13.342;2023-08-30T13:22:28;3.28;;;2.13;;
29330;SDS011;16331;52.528;13.342;2023-08-30T13:24:54;4.43;;;1.58;;
29330;SDS011;16331;52.528;13.342;2023-08-30T13:27:20;2.83;;;1.77;;
29330;SDS011;16331;52.528;13.342;2023-08-30T13:29:47;7.47;;;2.35;;
29330;SDS011;16331;52.528;13.342;2023-08-30T13:32:13;3.35;;;2.10;;
29330;SDS011;16331;52.528;13.342;2023-08-30T13:34:39;5.30;;;2.42;;
29330;SDS011;16331;52.528;13.342;2023-08-30T13:37:08;3.88;;;1.80;;
29330;SDS011;16331;52.528;13.342;2023-08-30T13:39:34;8.55;;;2.05;;
29330;SDS011;16331;52.528;13.342;2023-08-30T13:42:00;3.22;;;2.08;;
29330;SDS011;16331;52.528;13.342;2023-08-30T13:44:27;4.90;;;2.05;;
29330;SDS011;16331;52.528;13.342;2023-08-30T13:46:53;5.22;;;1.83;;
29330;SDS011;16331;52.528;13.342;2023-08-30T13:49:19;3.40;;;1.80;;
29330;SDS011;16331;52.528;13.342;2023-08-30T13:51:46;3.92;;;1.50;;
29330;SDS011;16331;52.528;13.342;2023-08-30T13:54:12;3.80;;;1.33;;
29330;SDS011;16331;52.528;13.342;2023-08-30T13:56:38;4.00;;;1.98;;
29330;SDS011;16331;52.528;13.342;2023-08-30T13:59:04;1.30;;;1.05;;
29330;SDS011;16331;52.528;13.342;2023-08-30T14:01:33;2.03;;;1.25;;
29330;SDS011;16331;52.528;13.342;2023-08-30T14:04:02;6.70;;;2.45;;
29330;SDS011;16331;52.528;13.342;2023-08-30T14:06:31;2.53;;;1.60;;
29330;SDS011;16331;52.528;13.342;2023-08-30T14:08:58;4.70;;;1.52;;
29330;SDS011;16331;52.528;13.342;2023-08-30T14:11:24;5.20;;;1.30;;
29330;SDS011;16331;52.528;13.342;2023-08-30T14:13:50;1.83;;;1.30;;
29330;SDS011;16331;52.528;13.342;2023-08-30T14:16:16;22.10;;;15.98;;
29330;SDS011;16331;52.528;13.342;2023-08-30T14:18:43;1.45;;;1.13;;
29330;SDS011;16331;52.528;13.342;2023-08-30T14:21:09;5.15;;;1.30;;
29330;SDS011;16331;52.528;13.342;2023-08-30T14:23:35;3.90;;;1.20;;
29330;SDS011;16331;52.528;13.342;2023-08-30T14:26:05;2.47;;;0.95;;
29330;SDS011;16331;52.528;13.342;2023-08-30T14:28:41;2.70;;;1.10;;
29330;SDS011;16331;52.528;13.342;2023-08-30T14:31:07;1.85;;;0.95;;
29330;SDS011;16331;52.528;13.342;2023-08-30T14:33:34;1.90;;;0.90;;
29330;SDS011;16331;52.528;13.342;2023-08-30T14:36:01;1.70;;;1.00;;
29330;SDS011;16331;52.528;13.342;2023-08-30T14:38:27;3.60;;;1.08;;
29330;SDS011;16331;52.528;13.342;2023-08-30T14:40:58;2.20;;;1.10;;
29330;SDS011;16331;52.528;13.342;2023-08-30T14:43:25;2.20;;;1.00;;
29330;SDS011;16331;52.528;13.342;2023-08-30T14:45:58;1.92;;;0.75;;
29330;SDS011;16331;52.528;13.342;2023-08-30T14:48:25;2.15;;;0.93;;